createdAt,value
2022-09-21T00:01:21.447Z,100819.38
2022-09-21T00:03:54.032Z,100819.06
2022-09-21T00:06:23.331Z,100821.34
2022-09-21T00:08:51.745Z,100826.31
2022-09-21T00:11:21.363Z,100826.88
2022-09-21T00:13:48.910Z,100828.56
2022-09-21T00:16:17.482Z,100823.16
2022-09-21T00:18:45.586Z,100823.00
2022-09-21T00:21:16.072Z,100835.81
2022-09-21T00:23:44.243Z,100822.75
2022-09-21T00:26:13.993Z,100833.59
2022-09-21T00:28:42.288Z,100825.75
2022-09-21T00:31:12.198Z,100827.28
2022-09-21T00:33:40.820Z,100824.66
2022-09-21T00:36:10.631Z,100832.91
2022-09-21T00:38:39.895Z,100835.28
2022-09-21T00:41:09.332Z,100831.06
2022-09-21T00:43:38.608Z,100822.41
2022-09-21T00:46:13.550Z,100826.50
2022-09-21T00:48:42.092Z,100827.22
2022-09-21T00:51:10.012Z,100823.56
2022-09-21T00:53:39.844Z,100825.06
2022-09-21T00:56:10.393Z,100813.53
2022-09-21T00:58:45.052Z,100818.66
2022-09-21T01:01:15.183Z,100820.19
2022-09-21T01:03:44.560Z,100833.72
2022-09-21T01:06:13.196Z,100825.31
2022-09-21T01:08:43.228Z,100828.03
2022-09-21T01:11:30.226Z,100828.84
2022-09-21T01:14:25.621Z,100828.03
2022-09-21T01:17:02.506Z,100827.25
2022-09-21T01:20:05.731Z,100826.44
2022-09-21T01:22:46.206Z,100826.28
2022-09-21T01:25:32.094Z,100829.31
2022-09-21T01:28:16.077Z,100829.00
2022-09-21T01:30:49.076Z,100832.91
2022-09-21T01:33:23.805Z,100829.97
2022-09-21T01:35:56.134Z,100829.78
2022-09-21T01:38:27.318Z,100834.75
2022-09-21T01:41:00.156Z,100830.25
2022-09-21T01:43:32.379Z,100830.09
2022-09-21T01:46:03.908Z,100830.88
2022-09-21T01:48:35.104Z,100825.63
2022-09-21T01:51:06.342Z,100835.69
2022-09-21T01:53:38.639Z,100835.69
2022-09-21T01:56:11.768Z,100832.16
2022-09-21T01:58:44.533Z,100832.16
2022-09-21T02:01:19.096Z,100832.88
2022-09-21T02:03:49.988Z,100839.66
2022-09-21T02:06:19.137Z,100838.53
2022-09-21T02:08:47.460Z,100840.91
2022-09-21T02:11:15.022Z,100831.50
2022-09-21T02:13:46.251Z,100836.59
2022-09-21T02:16:30.272Z,100839.00
2022-09-21T02:19:11.224Z,100833.72
2022-09-21T02:21:51.273Z,100840.31
2022-09-21T02:24:29.611Z,100829.22
2022-09-21T02:27:05.011Z,100829.16
2022-09-21T02:29:43.298Z,100828.97
2022-09-21T02:32:20.460Z,100828.88
2022-09-21T02:34:53.646Z,100826.97
2022-09-21T02:37:31.066Z,100825.19
2022-09-21T02:40:03.754Z,100825.06
2022-09-21T02:42:35.886Z,100825.75
2022-09-21T02:45:09.075Z,100822.13
2022-09-21T02:47:46.795Z,100823.72
2022-09-21T02:50:21.181Z,100818.44
2022-09-21T02:52:48.904Z,100824.19
2022-09-21T02:55:18.980Z,100820.84
2022-09-21T02:57:48.831Z,100826.75
2022-09-21T03:00:16.980Z,100819.97
2022-09-21T03:02:46.620Z,100819.97
2022-09-21T03:05:16.087Z,100810.53
2022-09-21T03:07:43.635Z,100815.53
2022-09-21T03:10:11.243Z,100815.38
2022-09-21T03:12:38.794Z,100817.69
2022-09-21T03:15:07.320Z,100818.38
2022-09-21T03:17:34.864Z,100819.97
2022-09-21T03:20:03.945Z,100819.78
2022-09-21T03:22:31.445Z,100822.19
2022-09-21T03:24:59.637Z,100822.00
2022-09-21T03:27:27.514Z,100823.59
2022-09-21T03:29:57.706Z,100829.47
2022-09-21T03:32:27.627Z,100834.41
2022-09-21T03:34:55.140Z,100828.16
2022-09-21T03:37:23.983Z,100829.75
2022-09-21T03:39:51.879Z,100833.72
2022-09-21T03:42:19.486Z,100836.16
2022-09-21T03:44:47.046Z,100833.53
2022-09-21T03:47:14.530Z,100838.63
2022-09-21T03:49:42.022Z,100836.06
2022-09-21T03:52:09.522Z,100831.75
2022-09-21T03:54:38.360Z,100837.03
2022-09-21T03:57:05.962Z,100835.47
2022-09-21T03:59:34.745Z,100838.28
2022-09-21T04:02:02.363Z,100839.16
2022-09-21T04:04:29.867Z,100845.06
2022-09-21T04:06:57.388Z,100838.97
2022-09-21T04:09:25.024Z,100843.06
2022-09-21T04:11:53.998Z,100845.69
2022-09-21T04:14:23.123Z,100843.72
2022-09-21T04:16:50.803Z,100845.16
2022-09-21T04:19:18.374Z,100845.34
2022-09-21T04:21:46.068Z,100849.38
2022-09-21T04:24:13.588Z,100849.28
2022-09-21T04:26:41.655Z,100848.50
2022-09-21T04:29:10.955Z,100850.09
2022-09-21T04:31:38.489Z,100850.09
2022-09-21T04:34:06.011Z,100855.00
2022-09-21T04:36:36.646Z,100852.25
2022-09-21T04:39:05.168Z,100848.66
2022-09-21T04:41:32.755Z,100854.38
2022-09-21T04:44:01.152Z,100868.03
2022-09-21T04:46:30.128Z,100860.09
2022-09-21T04:48:58.698Z,100869.41
2022-09-21T04:51:26.292Z,100870.13
2022-09-21T04:53:53.774Z,100872.69
2022-09-21T04:56:21.404Z,100871.97
2022-09-21T04:58:48.932Z,100870.03
2022-09-21T05:01:16.516Z,100868.97
2022-09-21T05:03:45.485Z,100876.63
2022-09-21T05:06:13.386Z,100875.44
2022-09-21T05:08:58.825Z,100879.50
2022-09-21T05:11:27.197Z,100877.56
2022-09-21T05:13:54.838Z,100879.84
2022-09-21T05:16:22.364Z,100883.34
2022-09-21T05:18:54.825Z,100872.16
2022-09-21T05:21:22.739Z,100881.03
2022-09-21T05:23:50.303Z,100886.75
2022-09-21T05:26:17.880Z,100889.50
2022-09-21T05:28:45.876Z,100882.63
2022-09-21T05:31:28.335Z,100896.00
2022-09-21T05:34:04.664Z,100888.59
2022-09-21T05:36:43.037Z,100896.56
2022-09-21T05:39:11.380Z,100893.19
2022-09-21T05:41:39.512Z,100891.16
2022-09-21T05:44:08.320Z,100898.81
2022-09-21T05:46:40.452Z,100898.72
2022-09-21T05:49:18.106Z,100898.72
2022-09-21T05:51:57.478Z,100898.09
2022-09-21T05:54:33.590Z,100897.31
2022-09-21T05:57:09.799Z,100905.38
2022-09-21T05:59:49.555Z,100915.94
2022-09-21T06:02:29.826Z,100907.69
2022-09-21T06:05:01.416Z,100905.22
2022-09-21T06:07:28.980Z,100907.84
2022-09-21T06:09:56.479Z,100906.88
2022-09-21T06:12:24.045Z,100911.41
2022-09-21T06:14:51.536Z,100913.31
2022-09-21T06:17:19.098Z,100912.78
2022-09-21T06:19:46.624Z,100910.69
2022-09-21T06:22:15.471Z,100912.13
2022-09-21T06:24:42.973Z,100916.56
2022-09-21T06:27:10.517Z,100921.34
2022-09-21T06:29:38.033Z,100920.97
2022-09-21T06:32:06.055Z,100928.56
2022-09-21T06:34:33.622Z,100922.22
2022-09-21T06:37:01.135Z,100919.47
2022-09-21T06:39:29.981Z,100918.31
2022-09-21T06:41:57.479Z,100925.53
2022-09-21T06:44:24.990Z,100921.88
2022-09-21T06:46:52.517Z,100909.41
2022-09-21T06:49:20.038Z,100914.16
2022-09-21T06:51:48.393Z,100916.59
2022-09-21T06:54:17.447Z,100918.63
2022-09-21T06:56:46.468Z,100924.31
2022-09-21T06:59:14.027Z,100920.72
2022-09-21T07:01:41.609Z,100922.63
2022-09-21T07:04:09.538Z,100923.91
2022-09-21T07:06:37.222Z,100925.81
2022-09-21T07:11:54.432Z,100920.78
2022-09-21T07:14:23.282Z,100918.59
2022-09-21T07:16:50.803Z,100925.06
2022-09-21T07:19:19.068Z,100921.00
2022-09-21T07:21:47.429Z,100927.59
2022-09-21T07:24:15.941Z,100925.56
2022-09-21T07:26:43.460Z,100919.25
2022-09-21T07:29:12.436Z,100920.63
2022-09-21T07:31:39.994Z,100921.25
2022-09-21T07:34:07.619Z,100923.44
2022-09-21T07:36:35.169Z,100926.50
2022-09-21T07:39:02.993Z,100925.31
2022-09-21T07:41:30.576Z,100923.97
2022-09-21T07:43:58.210Z,100926.16
2022-09-21T07:46:27.128Z,100920.34
2022-09-21T07:48:54.928Z,100921.59
2022-09-21T07:51:23.536Z,100922.81
2022-09-21T07:53:57.189Z,100921.47
2022-09-21T07:56:24.835Z,100921.00
2022-09-21T07:59:06.456Z,100918.09
2022-09-21T08:01:36.971Z,100920.38
2022-09-21T08:04:06.173Z,100920.16
2022-09-21T08:06:35.703Z,100916.34
2022-09-21T08:09:04.665Z,100918.56
2022-09-21T08:11:33.528Z,100920.69
2022-09-21T08:14:02.903Z,100910.13
2022-09-21T08:16:31.995Z,100912.22
2022-09-21T08:19:02.078Z,100917.59
2022-09-21T08:21:29.796Z,100911.06
2022-09-21T08:23:57.935Z,100910.56
2022-09-21T08:26:26.312Z,100913.78
2022-09-21T08:28:58.593Z,100910.22
2022-09-21T08:31:27.034Z,100903.72
2022-09-21T08:33:56.919Z,100909.50
2022-09-21T08:36:26.248Z,100909.91
2022-09-21T08:38:54.991Z,100911.19
2022-09-21T08:41:25.395Z,100909.09
2022-09-21T08:43:56.455Z,100916.41
2022-09-21T08:46:28.179Z,100913.81
2022-09-21T08:48:59.601Z,100911.78
2022-09-21T08:51:32.999Z,100913.25
2022-09-21T08:54:04.686Z,100912.19
2022-09-21T08:56:53.408Z,100905.00
2022-09-21T08:59:20.312Z,100901.53
2022-09-21T09:01:59.525Z,100904.13
2022-09-21T09:04:46.833Z,100896.78
2022-09-21T09:07:31.616Z,100905.53
2022-09-21T09:10:08.182Z,100907.44
2022-09-21T09:12:50.488Z,100902.50
2022-09-21T09:15:34.120Z,100899.34
2022-09-21T09:18:10.259Z,100900.53
2022-09-21T09:20:41.076Z,100896.50
2022-09-21T09:23:16.012Z,100896.00
2022-09-21T09:25:47.495Z,100897.22
2022-09-21T09:28:25.443Z,100894.16
2022-09-21T09:31:00.852Z,100893.28
2022-09-21T09:33:36.412Z,100892.81
2022-09-21T09:36:06.800Z,100893.81
2022-09-21T09:38:40.626Z,100892.56
2022-09-21T09:41:26.105Z,100886.66
2022-09-21T09:44:03.715Z,100886.09
2022-09-21T09:46:37.335Z,100886.50
2022-09-21T09:49:24.879Z,100887.16
2022-09-21T09:51:52.501Z,100880.16
2022-09-21T09:54:25.305Z,100870.00
2022-09-21T09:56:55.027Z,100872.72
2022-09-21T09:59:30.391Z,100860.16
2022-09-21T10:02:02.093Z,100874.59
2022-09-21T10:04:29.964Z,100868.69
2022-09-21T10:06:57.577Z,100855.31
2022-09-21T10:09:29.154Z,100861.03
2022-09-21T10:12:00.784Z,100849.28
2022-09-21T10:14:33.162Z,100857.41
2022-09-21T10:17:06.420Z,100842.06
2022-09-21T10:19:34.293Z,100844.00
2022-09-21T10:22:03.504Z,100851.94
2022-09-21T10:24:35.540Z,100850.38
2022-09-21T10:27:07.291Z,100840.91
2022-09-21T10:29:43.692Z,100834.09
2022-09-21T10:32:23.480Z,100842.00
2022-09-21T10:35:04.122Z,100837.69
2022-09-21T10:37:34.739Z,100841.25
2022-09-21T10:40:04.657Z,100840.44
2022-09-21T10:42:37.279Z,100826.53
2022-09-21T10:45:15.888Z,100836.13
2022-09-21T10:47:46.003Z,100832.66
2022-09-21T10:50:25.166Z,100834.38
2022-09-21T10:52:58.663Z,100832.63
2022-09-21T10:55:30.000Z,100826.44
2022-09-21T10:57:58.892Z,100830.78
2022-09-21T11:00:41.379Z,100829.03
2022-09-21T11:03:34.607Z,100830.72
2022-09-21T11:06:06.200Z,100822.78
2022-09-21T11:08:38.513Z,100824.56
2022-09-21T11:11:21.256Z,100836.06
2022-09-21T11:13:54.293Z,100836.13
2022-09-21T11:16:27.196Z,100838.69
2022-09-21T11:19:04.644Z,100836.06
2022-09-21T11:21:37.193Z,100827.41
2022-09-21T11:24:23.963Z,100823.03
2022-09-21T11:26:57.360Z,100822.19
2022-09-21T11:32:06.066Z,100819.56
2022-09-21T11:34:44.831Z,100821.28
2022-09-21T11:37:17.146Z,100813.41
2022-09-21T11:39:51.936Z,100807.38
2022-09-21T11:42:29.448Z,100803.00
2022-09-21T11:44:59.495Z,100796.03
2022-09-21T11:47:37.798Z,100790.75
2022-09-21T11:50:29.752Z,100790.63
2022-09-21T11:53:06.641Z,100790.47
2022-09-21T11:55:44.905Z,100789.25
2022-09-21T11:58:18.548Z,100782.69
2022-09-21T12:00:52.145Z,100771.72
2022-09-21T12:03:33.376Z,100779.09
2022-09-21T12:06:07.488Z,100778.22
2022-09-21T12:08:49.648Z,100781.97
2022-09-21T12:11:24.611Z,100777.31
2022-09-21T12:13:58.107Z,100775.88
2022-09-21T12:16:33.030Z,100773.72
2022-09-21T12:19:05.260Z,100768.41
2022-09-21T12:21:35.932Z,100767.13
2022-09-21T12:24:05.375Z,100766.97
2022-09-21T12:26:34.512Z,100762.84
2022-09-21T12:29:06.400Z,100759.97
2022-09-21T12:31:38.172Z,100761.81
2022-09-21T12:34:09.607Z,100766.66
2022-09-21T12:36:41.976Z,100758.69
2022-09-21T12:39:14.464Z,100753.09
2022-09-21T12:41:46.104Z,100752.34
2022-09-21T12:44:19.391Z,100747.63
2022-09-21T12:46:52.881Z,100735.78
2022-09-21T12:49:26.805Z,100741.84
2022-09-21T12:51:56.391Z,100749.91
2022-09-21T12:54:27.283Z,100747.03
2022-09-21T12:57:03.728Z,100745.16
2022-09-21T12:59:42.103Z,100738.50
2022-09-21T13:02:17.615Z,100741.16
2022-09-21T13:04:50.298Z,100740.00
2022-09-21T13:07:40.882Z,100742.88
2022-09-21T13:10:15.092Z,100742.56
2022-09-21T13:12:44.138Z,100731.91
2022-09-21T13:15:17.116Z,100732.75
2022-09-21T13:17:44.639Z,100738.13
2022-09-21T13:20:17.623Z,100741.28
2022-09-21T13:22:45.708Z,100731.09
2022-09-21T13:25:20.216Z,100741.72
2022-09-21T13:28:00.459Z,100733.81
2022-09-21T13:30:37.020Z,100729.06
2022-09-21T13:33:05.504Z,100716.13
2022-09-21T13:35:50.799Z,100712.63
2022-09-21T13:38:23.563Z,100709.81
2022-09-21T13:40:57.022Z,100716.00
2022-09-21T13:43:39.302Z,100711.63
2022-09-21T13:46:08.043Z,100703.38
2022-09-21T13:48:35.996Z,100708.31
2022-09-21T13:51:10.032Z,100709.31
2022-09-21T13:53:40.807Z,100702.66
2022-09-21T13:56:09.861Z,100698.81
2022-09-21T13:58:41.691Z,100697.69
2022-09-21T14:01:42.393Z,100700.69
2022-09-21T14:04:06.232Z,100688.06
2022-09-21T14:06:35.571Z,100684.28
2022-09-21T14:09:05.312Z,100687.66
2022-09-21T14:11:34.811Z,100686.22
2022-09-21T14:14:05.689Z,100675.44
2022-09-21T14:16:52.133Z,100678.78
2022-09-21T14:19:38.336Z,100675.16
2022-09-21T14:22:26.472Z,100676.50
2022-09-21T14:25:09.348Z,100681.78
2022-09-21T14:27:45.308Z,100669.25
2022-09-21T14:30:19.788Z,100677.09
2022-09-21T14:32:51.029Z,100664.22
2022-09-21T14:35:19.976Z,100662.44
2022-09-21T14:37:51.979Z,100664.06
2022-09-21T14:40:21.274Z,100662.25
2022-09-21T14:42:50.235Z,100653.97
2022-09-21T14:45:18.975Z,100658.59
2022-09-21T14:47:53.848Z,100656.41
2022-09-21T14:50:32.200Z,100646.34
2022-09-21T14:53:07.938Z,100648.75
2022-09-21T14:55:45.108Z,100642.34
2022-09-21T14:58:22.905Z,100641.44
2022-09-21T15:00:51.252Z,100641.44
2022-09-21T15:03:38.902Z,100642.34
2022-09-21T15:06:26.419Z,100642.69
2022-09-21T15:09:15.120Z,100638.31
2022-09-21T15:11:46.953Z,100636.78
2022-09-21T15:14:23.347Z,100631.84
2022-09-21T15:16:51.683Z,100634.97
2022-09-21T15:19:23.539Z,100624.94
2022-09-21T15:21:52.231Z,100619.78
2022-09-21T15:24:25.812Z,100626.78
2022-09-21T15:26:55.427Z,100614.72
2022-09-21T15:29:26.084Z,100625.41
2022-09-21T15:31:54.042Z,100611.53
2022-09-21T15:34:22.413Z,100614.94
2022-09-21T15:36:50.884Z,100610.22
2022-09-21T15:39:26.404Z,100617.72
2022-09-21T15:42:08.668Z,100608.41
2022-09-21T15:44:38.379Z,100615.84
2022-09-21T15:47:08.377Z,100618.94
2022-09-21T15:49:36.584Z,100614.91
2022-09-21T15:52:06.198Z,100615.06
2022-09-21T15:54:35.306Z,100620.53
2022-09-21T15:57:08.593Z,100613.06
2022-09-21T15:59:37.483Z,100613.94
2022-09-21T16:02:12.179Z,100624.09
2022-09-21T16:04:49.301Z,100620.13
2022-09-21T16:07:26.034Z,100620.84
2022-09-21T16:09:53.390Z,100624.72
2022-09-21T16:12:31.698Z,100616.94
2022-09-21T16:15:04.334Z,100609.34
2022-09-21T16:17:36.521Z,100612.19
2022-09-21T16:20:14.644Z,100617.34
2022-09-21T16:22:43.429Z,100617.41
2022-09-21T16:25:21.487Z,100621.81
2022-09-21T16:27:54.235Z,100625.53
2022-09-21T16:30:42.520Z,100624.06
2022-09-21T16:33:39.763Z,100625.47
2022-09-21T16:36:22.426Z,100634.94
2022-09-21T16:38:50.349Z,100632.69
2022-09-21T16:41:18.685Z,100627.44
2022-09-21T16:43:46.147Z,100635.06
2022-09-21T16:46:14.884Z,100635.44
2022-09-21T16:48:42.258Z,100641.41
2022-09-21T16:51:11.328Z,100640.28
2022-09-21T16:53:38.691Z,100639.53
2022-09-21T16:56:06.924Z,100647.56
2022-09-21T16:58:34.307Z,100650.56
2022-09-21T17:01:02.696Z,100638.44
2022-09-21T17:03:34.721Z,100650.41
2022-09-21T17:06:02.487Z,100641.78
2022-09-21T17:08:30.194Z,100641.38
2022-09-21T17:10:57.891Z,100643.63
2022-09-21T17:13:25.278Z,100646.66
2022-09-21T17:15:53.305Z,100649.53
2022-09-21T17:18:20.683Z,100642.72
2022-09-21T17:20:49.515Z,100655.00
2022-09-21T17:23:16.900Z,100648.06
2022-09-21T17:25:45.516Z,100653.19
2022-09-21T17:28:14.359Z,100651.31
2022-09-21T17:30:42.384Z,100654.59
2022-09-21T17:33:10.824Z,100652.63
2022-09-21T17:35:39.647Z,100646.31
2022-09-21T17:38:13.965Z,100648.78
2022-09-21T17:40:42.416Z,100653.63
2022-09-21T17:43:17.740Z,100653.25
2022-09-21T17:45:46.757Z,100655.53
2022-09-21T17:48:18.412Z,100656.16
2022-09-21T17:50:46.082Z,100662.81
2022-09-21T17:53:32.785Z,100664.28
2022-09-21T17:56:02.667Z,100664.75
2022-09-21T17:58:41.212Z,100673.88
2022-09-21T18:01:13.611Z,100670.09
2022-09-21T18:03:42.443Z,100679.47
2022-09-21T18:06:10.421Z,100670.63
2022-09-21T18:08:40.128Z,100675.44
2022-09-21T18:11:13.365Z,100681.28
2022-09-21T18:13:45.659Z,100679.31
2022-09-21T18:16:21.548Z,100679.94
2022-09-21T18:18:52.848Z,100681.44
2022-09-21T18:21:21.456Z,100686.22
2022-09-21T18:24:13.496Z,100691.22
2022-09-21T18:26:41.200Z,100684.75
2022-09-21T18:29:37.997Z,100688.16
2022-09-21T18:32:21.836Z,100699.03
2022-09-21T18:35:05.305Z,100704.88
2022-09-21T18:37:37.263Z,100696.91
2022-09-21T18:40:11.004Z,100701.09
2022-09-21T18:42:42.231Z,100706.13
2022-09-21T18:45:14.107Z,100704.28
2022-09-21T18:47:44.414Z,100709.13
2022-09-21T18:50:19.437Z,100712.34
2022-09-21T18:52:51.284Z,100715.56
2022-09-21T18:55:24.951Z,100711.63
2022-09-21T18:57:52.723Z,100710.28
2022-09-21T19:00:20.938Z,100712.59
2022-09-21T19:03:12.654Z,100713.16
2022-09-21T19:05:38.214Z,100707.63
2022-09-21T19:08:10.230Z,100718.63
2022-09-21T19:10:40.305Z,100721.97
2022-09-21T19:13:15.088Z,100716.41
2022-09-21T19:16:00.536Z,100723.06
2022-09-21T19:18:32.428Z,100718.41
2022-09-21T19:21:07.133Z,100726.66
2022-09-21T19:23:41.748Z,100726.50
2022-09-21T19:26:15.831Z,100728.81
2022-09-21T19:28:51.050Z,100730.31
2022-09-21T19:31:19.774Z,100733.53
2022-09-21T19:33:51.656Z,100724.53
2022-09-21T19:36:19.306Z,100731.19
2022-09-21T19:38:46.820Z,100731.03
2022-09-21T19:41:24.279Z,100733.41
2022-09-21T19:43:57.169Z,100726.31
2022-09-21T19:46:33.327Z,100721.03
2022-09-21T19:49:05.844Z,100727.78
2022-09-21T19:51:38.233Z,100728.34
2022-09-21T19:54:30.161Z,100728.91
2022-09-21T19:57:16.691Z,100726.06
2022-09-21T19:59:44.621Z,100738.72
2022-09-21T20:02:13.380Z,100730.88
2022-09-21T20:04:45.796Z,100732.28
2022-09-21T20:07:18.800Z,100732.06
2022-09-21T20:10:00.185Z,100726.69
2022-09-21T20:12:31.755Z,100734.22
2022-09-21T20:15:02.683Z,100739.19
2022-09-21T20:17:34.534Z,100740.84
2022-09-21T20:20:08.209Z,100744.97
2022-09-21T20:22:37.026Z,100747.31
2022-09-21T20:25:10.623Z,100746.13
2022-09-21T20:27:40.825Z,100739.91
2022-09-21T20:30:09.864Z,100743.13
2022-09-21T20:32:38.453Z,100744.81
2022-09-21T20:35:09.897Z,100743.75
2022-09-21T20:37:37.788Z,100750.28
2022-09-21T20:40:05.439Z,100746.69
2022-09-21T20:42:34.255Z,100755.00
2022-09-21T20:45:03.031Z,100749.72
2022-09-21T20:47:30.380Z,100755.22
2022-09-21T20:49:57.829Z,100755.75
2022-09-21T20:52:25.259Z,100757.25
2022-09-21T20:54:52.618Z,100755.47
2022-09-21T20:57:20.177Z,100750.06
2022-09-21T20:59:47.842Z,100753.34
2022-09-21T21:02:17.124Z,100753.06
2022-09-21T21:04:44.494Z,100756.16
2022-09-21T21:07:11.961Z,100763.00
2022-09-21T21:09:39.301Z,100761.09
2022-09-21T21:12:06.879Z,100759.34
2022-09-21T21:14:34.277Z,100758.47
2022-09-21T21:17:02.248Z,100759.22
2022-09-21T21:19:31.408Z,100758.28
2022-09-21T21:21:58.802Z,100758.94
2022-09-21T21:24:41.048Z,100757.06
2022-09-21T21:27:09.682Z,100748.94
2022-09-21T21:29:37.973Z,100756.53
2022-09-21T21:32:05.690Z,100755.56
2022-09-21T21:34:34.563Z,100764.75
2022-09-21T21:37:01.943Z,100761.00
2022-09-21T21:39:30.375Z,100765.88
2022-09-21T21:41:57.725Z,100763.91
2022-09-21T21:44:25.132Z,100770.59
2022-09-21T21:46:53.255Z,100756.00
2022-09-21T21:49:20.699Z,100759.28
2022-09-21T21:51:50.031Z,100767.75
2022-09-21T21:54:18.207Z,100759.03
2022-09-21T21:56:45.661Z,100757.88
2022-09-21T21:59:17.574Z,100763.53
2022-09-21T22:01:45.439Z,100758.47
2022-09-21T22:04:12.816Z,100754.59
2022-09-21T22:06:40.540Z,100750.13
2022-09-21T22:09:10.114Z,100749.94
2022-09-21T22:11:38.119Z,100749.56
2022-09-21T22:14:06.476Z,100743.38
2022-09-21T22:16:34.982Z,100745.91
2022-09-21T22:19:03.384Z,100746.50
2022-09-21T22:21:32.266Z,100750.75
2022-09-21T22:24:01.287Z,100748.09
2022-09-21T22:26:31.671Z,100743.72
2022-09-21T22:29:01.956Z,100743.72
2022-09-21T22:31:31.598Z,100740.97
2022-09-21T22:33:59.700Z,100738.41
2022-09-21T22:36:27.663Z,100742.59
2022-09-21T22:38:55.409Z,100747.81
2022-09-21T22:41:23.689Z,100742.69
2022-09-21T22:43:53.251Z,100741.13
2022-09-21T22:46:20.923Z,100747.09
2022-09-21T22:48:48.667Z,100740.91
2022-09-21T22:51:16.656Z,100738.13
2022-09-21T22:53:44.526Z,100743.09
2022-09-21T22:56:13.643Z,100741.34
2022-09-21T22:58:42.268Z,100745.66
2022-09-21T23:01:12.085Z,100745.00
2022-09-21T23:03:40.169Z,100743.19
2022-09-21T23:06:08.906Z,100741.50
2022-09-21T23:08:36.763Z,100737.19
2022-09-21T23:11:09.020Z,100740.41
2022-09-21T23:13:36.346Z,100736.09
2022-09-21T23:16:04.836Z,100739.44
2022-09-21T23:18:33.589Z,100728.91
2022-09-21T23:21:01.872Z,100732.88
2022-09-21T23:23:29.525Z,100726.72
2022-09-21T23:26:05.034Z,100727.16
2022-09-21T23:28:32.974Z,100731.41
2022-09-21T23:31:01.143Z,100726.94
2022-09-21T23:33:32.162Z,100733.81
2022-09-21T23:36:01.148Z,100724.38
2022-09-21T23:38:29.898Z,100725.31
2022-09-21T23:41:04.031Z,100724.38
2022-09-21T23:43:31.619Z,100716.81
2022-09-21T23:45:59.218Z,100722.91
2022-09-21T23:48:26.762Z,100721.16
2022-09-21T23:50:54.416Z,100727.00
2022-09-21T23:53:23.805Z,100716.59
2022-09-21T23:55:51.259Z,100713.69
2022-09-21T23:58:19.304Z,100719.31
